createdAt,value
2018-12-06T00:00:07.971Z,0
2018-12-06T00:01:16.038Z,0
2018-12-06T00:02:24.087Z,0
2018-12-06T00:03:32.147Z,0
2018-12-06T00:04:40.207Z,0
2018-12-06T00:05:48.302Z,0
2018-12-06T00:06:56.322Z,0
2018-12-06T00:08:04.401Z,0
2018-12-06T00:09:12.445Z,0
2018-12-06T00:10:20.507Z,0
2018-12-06T00:11:28.568Z,0
2018-12-06T00:12:36.645Z,0
2018-12-06T00:13:44.684Z,0
2018-12-06T00:14:52.747Z,0
2018-12-06T00:16:00.807Z,0
2018-12-06T00:17:08.888Z,0
2018-12-06T00:18:16.934Z,0
2018-12-06T00:19:24.997Z,0
2018-12-06T00:20:33.056Z,0
2018-12-06T00:21:41.097Z,0
2018-12-06T00:22:49.176Z,0
2018-12-06T00:23:57.242Z,0
2018-12-06T00:25:05.305Z,0
2018-12-06T00:26:13.364Z,0
2018-12-06T00:27:21.401Z,0
2018-12-06T00:28:29.486Z,0
2018-12-06T00:29:37.537Z,0
2018-12-06T00:30:45.608Z,0
2018-12-06T00:31:53.663Z,0
2018-12-06T00:33:01.707Z,0
2018-12-06T00:34:09.795Z,0
2018-12-06T00:35:17.853Z,0
2018-12-06T00:36:25.908Z,0
2018-12-06T00:37:33.962Z,0
2018-12-06T00:38:42.014Z,0
2018-12-06T00:39:50.090Z,0
2018-12-06T00:40:58.152Z,0
2018-12-06T00:42:06.209Z,0
2018-12-06T00:43:14.263Z,0
2018-12-06T00:44:22.339Z,0
2018-12-06T00:45:30.391Z,0
2018-12-06T00:46:38.463Z,0
2018-12-06T00:47:46.511Z,0
2018-12-06T00:48:54.580Z,0
2018-12-06T00:50:02.645Z,0
2018-12-06T00:51:10.720Z,0
2018-12-06T00:52:18.757Z,0
2018-12-06T00:53:26.830Z,0
2018-12-06T00:54:34.871Z,0
2018-12-06T00:55:42.939Z,0
2018-12-06T00:56:50.968Z,0
2018-12-06T00:57:59.051Z,0
2018-12-06T00:59:07.108Z,0
2018-12-06T01:00:15.165Z,0
2018-12-06T01:01:23.221Z,0
2018-12-06T01:02:31.268Z,0
2018-12-06T01:03:39.354Z,0
2018-12-06T01:04:47.417Z,0
2018-12-06T01:05:55.470Z,0
2018-12-06T01:07:03.536Z,0
2018-12-06T01:08:11.572Z,0
2018-12-06T01:09:19.652Z,0
2018-12-06T01:10:27.712Z,0
2018-12-06T01:11:35.788Z,0
2018-12-06T01:12:43.833Z,0
2018-12-06T01:13:51.883Z,0
2018-12-06T01:14:59.955Z,0
2018-12-06T01:16:08.017Z,0
2018-12-06T01:17:16.081Z,0
2018-12-06T01:18:24.130Z,0
2018-12-06T01:19:32.198Z,0
2018-12-06T01:20:40.264Z,0
2018-12-06T01:21:48.345Z,0
2018-12-06T01:22:56.382Z,0
2018-12-06T01:24:04.435Z,0
2018-12-06T01:25:12.510Z,0
2018-12-06T01:26:20.555Z,0
2018-12-06T01:27:28.626Z,0
2018-12-06T01:28:36.683Z,0
2018-12-06T01:29:44.748Z,0
2018-12-06T01:30:52.797Z,0
2018-12-06T01:32:00.849Z,0
2018-12-06T01:33:08.926Z,0
2018-12-06T01:34:16.981Z,0
2018-12-06T01:35:25.059Z,0
2018-12-06T01:36:33.098Z,0
2018-12-06T01:37:41.135Z,0
2018-12-06T01:38:49.235Z,0
2018-12-06T01:39:57.314Z,0
2018-12-06T01:41:05.342Z,0
2018-12-06T01:42:13.414Z,0
2018-12-06T01:43:21.447Z,0
2018-12-06T01:44:29.521Z,0
2018-12-06T01:45:37.597Z,0
2018-12-06T01:46:45.647Z,0
2018-12-06T01:47:53.717Z,0
2018-12-06T01:49:01.762Z,0
2018-12-06T01:50:09.836Z,0
2018-12-06T01:51:17.908Z,0
2018-12-06T01:52:25.975Z,0
2018-12-06T01:53:34.017Z,0
2018-12-06T01:54:42.076Z,0
2018-12-06T01:55:50.149Z,0
2018-12-06T01:56:58.201Z,0
2018-12-06T01:58:06.247Z,0
2018-12-06T01:59:14.326Z,0
2018-12-06T02:00:22.379Z,0
2018-12-06T02:01:30.447Z,0
2018-12-06T02:02:38.496Z,0
2018-12-06T02:03:46.561Z,0
2018-12-06T02:04:54.637Z,0
2018-12-06T02:06:02.699Z,0
2018-12-06T02:07:10.727Z,0
2018-12-06T02:08:18.808Z,0
2018-12-06T02:09:26.865Z,0
2018-12-06T02:10:34.929Z,0
2018-12-06T02:11:42.976Z,0
2018-12-06T02:12:51.018Z,0
2018-12-06T02:13:59.102Z,0
2018-12-06T02:15:07.170Z,0
2018-12-06T02:16:15.228Z,0
2018-12-06T02:17:23.288Z,0
2018-12-06T02:18:31.332Z,0
2018-12-06T02:19:39.411Z,0
2018-12-06T02:20:47.463Z,0
2018-12-06T02:21:55.543Z,0
2018-12-06T02:23:03.607Z,0
2018-12-06T02:24:11.641Z,0
2018-12-06T02:25:19.726Z,0
2018-12-06T02:26:27.765Z,0
2018-12-06T02:27:35.830Z,0
2018-12-06T02:28:43.899Z,0
2018-12-06T02:29:51.957Z,0
2018-12-06T02:31:00.010Z,0
2018-12-06T02:32:08.088Z,0
2018-12-06T02:33:16.149Z,0
2018-12-06T02:34:24.200Z,0
2018-12-06T02:35:32.247Z,0
2018-12-06T02:36:40.316Z,0
2018-12-06T02:37:48.397Z,0
2018-12-06T02:38:56.438Z,0
2018-12-06T02:40:04.495Z,0
2018-12-06T02:41:12.572Z,0
2018-12-06T02:42:20.628Z,0
2018-12-06T02:43:28.681Z,0
2018-12-06T02:44:36.747Z,0
2018-12-06T02:45:44.793Z,0
2018-12-06T02:46:52.867Z,0
2018-12-06T02:48:00.892Z,0
2018-12-06T02:49:08.980Z,0
2018-12-06T02:50:17.040Z,0
2018-12-06T02:51:25.108Z,0
2018-12-06T02:52:33.164Z,0
2018-12-06T02:53:41.192Z,0
2018-12-06T02:54:49.291Z,0
2018-12-06T02:55:57.364Z,0
2018-12-06T02:57:05.410Z,0
2018-12-06T02:58:13.466Z,0
2018-12-06T02:59:21.489Z,0
2018-12-06T03:00:29.590Z,0
2018-12-06T03:01:37.633Z,0
2018-12-06T03:02:45.697Z,0
2018-12-06T03:03:53.769Z,0
2018-12-06T03:05:01.830Z,0
2018-12-06T03:06:09.890Z,0
2018-12-06T03:07:17.982Z,0
2018-12-06T03:08:25.996Z,0
2018-12-06T03:09:34.079Z,0
2018-12-06T03:10:42.149Z,0
2018-12-06T03:11:50.196Z,0
2018-12-06T03:12:58.254Z,0
2018-12-06T03:14:06.326Z,0
2018-12-06T03:15:14.381Z,0
2018-12-06T03:16:22.440Z,0
2018-12-06T03:17:30.498Z,0
2018-12-06T03:18:38.558Z,0
2018-12-06T03:19:47.720Z,0
2018-12-06T03:20:54.671Z,0
2018-12-06T03:22:02.782Z,0
2018-12-06T03:23:10.776Z,0
2018-12-06T03:24:18.842Z,0
2018-12-06T03:25:26.900Z,0
2018-12-06T03:26:34.963Z,0
2018-12-06T03:27:43.032Z,0
2018-12-06T03:28:51.057Z,0
2018-12-06T03:29:59.181Z,0
2018-12-06T03:31:07.211Z,0
2018-12-06T03:32:15.266Z,0
2018-12-06T03:33:23.347Z,0
2018-12-06T03:34:31.357Z,0
2018-12-06T03:35:39.458Z,0
2018-12-06T03:36:47.725Z,0
2018-12-06T03:37:55.551Z,0
2018-12-06T03:39:03.632Z,0
2018-12-06T03:40:11.663Z,0
2018-12-06T03:41:19.757Z,0
2018-12-06T03:42:27.819Z,0
2018-12-06T03:43:35.875Z,0
2018-12-06T03:44:43.927Z,0
2018-12-06T03:45:51.994Z,0
2018-12-06T03:47:00.037Z,0
2018-12-06T03:48:08.114Z,0
2018-12-06T03:49:16.195Z,0
2018-12-06T03:50:24.249Z,0
2018-12-06T03:51:32.294Z,0
2018-12-06T03:52:40.357Z,0
2018-12-06T03:53:48.398Z,0
2018-12-06T03:54:56.469Z,0
2018-12-06T03:56:04.524Z,0
2018-12-06T03:57:12.589Z,0
2018-12-06T03:58:20.669Z,0
2018-12-06T03:59:28.724Z,0
2018-12-06T04:00:36.775Z,0
2018-12-06T04:01:44.850Z,0
2018-12-06T04:02:52.906Z,0
2018-12-06T04:04:00.929Z,0
2018-12-06T04:05:09.017Z,0
2018-12-06T04:06:17.080Z,0
2018-12-06T04:07:25.161Z,0
2018-12-06T04:08:33.212Z,0
2018-12-06T04:09:41.240Z,0
2018-12-06T04:10:49.313Z,0
2018-12-06T04:11:57.387Z,0
2018-12-06T04:13:05.454Z,0
2018-12-06T04:14:13.502Z,0
2018-12-06T04:15:21.526Z,0
2018-12-06T04:16:29.627Z,0
2018-12-06T04:17:37.697Z,0
2018-12-06T04:18:45.745Z,0
2018-12-06T04:19:53.792Z,0
2018-12-06T04:21:01.855Z,0
2018-12-06T04:22:09.921Z,0
2018-12-06T04:23:17.986Z,0
2018-12-06T04:24:26.042Z,0
2018-12-06T04:25:34.102Z,0
2018-12-06T04:26:42.158Z,0
2018-12-06T04:27:50.224Z,0
2018-12-06T04:28:58.290Z,0
2018-12-06T04:30:06.344Z,0
2018-12-06T04:31:14.402Z,0
2018-12-06T04:32:22.470Z,0
2018-12-06T04:33:30.532Z,0
2018-12-06T04:34:38.589Z,0
2018-12-06T04:35:46.653Z,0
2018-12-06T04:36:54.730Z,0
2018-12-06T04:38:02.779Z,0
2018-12-06T04:39:10.812Z,0
2018-12-06T04:40:18.928Z,0
2018-12-06T04:41:26.960Z,0
2018-12-06T04:42:35.016Z,0
2018-12-06T04:43:43.071Z,0
2018-12-06T04:44:51.112Z,0
2018-12-06T04:45:59.197Z,0
2018-12-06T04:47:07.248Z,0
2018-12-06T04:48:21.794Z,0
2018-12-06T04:49:23.390Z,0
2018-12-06T04:50:31.406Z,0
2018-12-06T04:51:39.499Z,0
2018-12-06T04:52:47.557Z,0
2018-12-06T04:53:55.620Z,0
2018-12-06T04:55:03.686Z,0
2018-12-06T04:56:11.722Z,0
2018-12-06T04:57:19.799Z,0
2018-12-06T04:58:27.866Z,0
2018-12-06T04:59:35.958Z,0
2018-12-06T05:00:43.986Z,0
2018-12-06T05:01:52.045Z,0
2018-12-06T05:03:00.106Z,0
2018-12-06T05:04:08.157Z,0
2018-12-06T05:05:16.226Z,0
2018-12-06T05:06:24.299Z,0
2018-12-06T05:07:32.347Z,0
2018-12-06T05:08:40.406Z,0
2018-12-06T05:09:48.489Z,0
2018-12-06T05:10:56.545Z,0
2018-12-06T05:12:04.598Z,0
2018-12-06T05:13:12.658Z,0
2018-12-06T05:14:21.315Z,0
2018-12-06T05:15:28.771Z,0
2018-12-06T05:16:36.854Z,0
2018-12-06T05:17:44.886Z,0
2018-12-06T05:18:52.961Z,0
2018-12-06T05:20:00.998Z,0
2018-12-06T05:21:09.095Z,0
2018-12-06T05:22:17.127Z,0
2018-12-06T05:23:25.221Z,0
2018-12-06T05:24:33.268Z,0
2018-12-06T05:25:41.305Z,0
2018-12-06T05:26:49.397Z,0
2018-12-06T05:27:57.446Z,0
2018-12-06T05:29:05.515Z,0
2018-12-06T05:30:13.571Z,0
2018-12-06T05:31:21.604Z,0
2018-12-06T05:32:29.687Z,0
2018-12-06T05:33:37.750Z,0
2018-12-06T05:34:45.836Z,0
2018-12-06T05:35:53.875Z,0
2018-12-06T05:37:01.930Z,0
2018-12-06T05:38:10.064Z,0
2018-12-06T05:39:18.050Z,0
2018-12-06T05:40:26.679Z,0
2018-12-06T05:41:34.168Z,0
2018-12-06T05:42:42.235Z,0
2018-12-06T05:43:51.041Z,0
2018-12-06T05:44:58.360Z,0
2018-12-06T05:46:06.429Z,0
2018-12-06T05:47:15.113Z,0
2018-12-06T05:48:23.137Z,0
2018-12-06T05:49:32.550Z,0
2018-12-06T05:50:39.274Z,0
2018-12-06T05:51:47.324Z,0
2018-12-06T05:52:55.344Z,0
2018-12-06T05:54:03.857Z,0
2018-12-06T05:55:11.481Z,0
2018-12-06T05:56:19.604Z,0
2018-12-06T05:57:27.502Z,0
2018-12-06T05:58:35.697Z,0
2018-12-06T05:59:43.756Z,0
2018-12-06T06:00:52.101Z,0
2018-12-06T06:01:59.840Z,0
2018-12-06T06:03:07.967Z,0
2018-12-06T06:04:16.027Z,0
2018-12-06T06:05:24.011Z,0
2018-12-06T06:06:32.074Z,0
2018-12-06T06:07:40.194Z,0
2018-12-06T06:08:48.311Z,0
2018-12-06T06:09:57.821Z,0
2018-12-06T06:11:04.375Z,0
2018-12-06T06:12:12.450Z,0
2018-12-06T06:13:22.069Z,0
2018-12-06T06:14:28.532Z,0
2018-12-06T06:15:36.617Z,0
2018-12-06T06:16:44.713Z,0
2018-12-06T06:17:52.660Z,0
2018-12-06T06:19:03.854Z,0
2018-12-06T06:20:08.288Z,0
2018-12-06T06:21:16.371Z,0
2018-12-06T06:22:25.001Z,0
2018-12-06T06:23:33.060Z,0
2018-12-06T06:24:41.111Z,0
2018-12-06T06:25:49.152Z,0
2018-12-06T06:26:57.244Z,0
2018-12-06T06:28:05.655Z,0
2018-12-06T06:29:13.303Z,0
2018-12-06T06:30:21.380Z,0
2018-12-06T06:31:29.433Z,0
2018-12-06T06:32:37.388Z,0
2018-12-06T06:33:45.542Z,0
2018-12-06T06:34:53.579Z,0
2018-12-06T06:36:01.625Z,0
2018-12-06T06:37:09.558Z,0
2018-12-06T06:38:17.825Z,0
2018-12-06T06:39:25.860Z,0
2018-12-06T06:40:33.973Z,0
2018-12-06T06:41:42.028Z,0
2018-12-06T06:42:50.069Z,0
2018-12-06T06:43:58.089Z,0
2018-12-06T06:45:07.232Z,0
2018-12-06T06:46:14.222Z,0
2018-12-06T06:47:22.250Z,0
2018-12-06T06:48:31.943Z,0
2018-12-06T06:49:38.447Z,0
2018-12-06T06:50:46.848Z,0
2018-12-06T06:51:54.543Z,0
2018-12-06T06:53:02.629Z,0
2018-12-06T06:54:10.584Z,0
2018-12-06T06:55:20.287Z,0
2018-12-06T06:56:26.746Z,0
2018-12-06T06:57:34.863Z,0
2018-12-06T06:58:42.956Z,0
2018-12-06T06:59:50.990Z,0
2018-12-06T07:00:58.947Z,0
2018-12-06T07:02:07.035Z,0
2018-12-06T07:03:16.830Z,0
2018-12-06T07:04:24.379Z,5
2018-12-06T07:05:31.279Z,5
2018-12-06T07:06:39.337Z,5
2018-12-06T07:07:47.311Z,5
2018-12-06T07:08:55.445Z,5
2018-12-06T07:10:03.547Z,5
2018-12-06T07:11:11.557Z,5
2018-12-06T07:12:19.641Z,5
2018-12-06T07:13:27.732Z,5
2018-12-06T07:14:35.805Z,5
2018-12-06T07:15:43.850Z,5
2018-12-06T07:16:51.853Z,10
2018-12-06T07:17:59.906Z,10
2018-12-06T07:19:08.038Z,10
2018-12-06T07:20:16.088Z,10
2018-12-06T07:21:24.155Z,10
2018-12-06T07:22:32.204Z,10
2018-12-06T07:23:40.173Z,10
2018-12-06T07:24:50.123Z,15
2018-12-06T07:25:56.369Z,15
2018-12-06T07:27:04.436Z,15
2018-12-06T07:28:12.490Z,15
2018-12-06T07:29:20.538Z,20
2018-12-06T07:30:28.641Z,20
2018-12-06T07:31:36.609Z,20
2018-12-06T07:32:44.780Z,20
2018-12-06T07:33:52.743Z,20
2018-12-06T07:35:00.770Z,20
2018-12-06T07:36:08.794Z,20
2018-12-06T07:37:16.963Z,20
2018-12-06T07:38:24.993Z,20
2018-12-06T07:39:33.041Z,20
2018-12-06T07:40:41.154Z,20
2018-12-06T07:41:49.199Z,20
2018-12-06T07:42:57.210Z,20
2018-12-06T07:44:05.340Z,20
2018-12-06T07:45:13.447Z,20
2018-12-06T07:46:21.455Z,20
2018-12-06T07:47:29.464Z,20
2018-12-06T07:48:37.609Z,20
2018-12-06T07:49:45.666Z,20
2018-12-06T07:50:53.666Z,20
2018-12-06T07:52:01.750Z,20
2018-12-06T07:53:09.749Z,20
2018-12-06T07:54:17.901Z,20
2018-12-06T07:55:26.100Z,20
2018-12-06T07:56:33.977Z,20
2018-12-06T07:57:42.012Z,20
2018-12-06T07:58:51.476Z,20
2018-12-06T07:59:58.173Z,20
2018-12-06T08:01:06.205Z,20
2018-12-06T08:02:14.618Z,20
2018-12-06T08:03:22.305Z,25
2018-12-06T08:04:30.385Z,25
2018-12-06T08:05:38.414Z,25
2018-12-06T08:06:46.607Z,25
2018-12-06T08:07:54.669Z,25
2018-12-06T08:09:03.350Z,25
2018-12-06T08:10:10.697Z,25
2018-12-06T08:11:18.767Z,25
2018-12-06T08:12:26.765Z,25
2018-12-06T08:13:34.983Z,30
2018-12-06T08:14:42.814Z,30
2018-12-06T08:15:51.076Z,30
2018-12-06T08:16:59.137Z,30
2018-12-06T08:18:07.097Z,35
2018-12-06T08:19:15.277Z,30
2018-12-06T08:20:23.324Z,30
2018-12-06T08:21:31.254Z,30
2018-12-06T08:22:39.383Z,35
2018-12-06T08:23:47.456Z,35
2018-12-06T08:24:55.490Z,35
2018-12-06T08:26:03.604Z,40
2018-12-06T08:27:11.541Z,40
2018-12-06T08:28:19.496Z,40
2018-12-06T08:29:27.819Z,40
2018-12-06T08:30:35.836Z,45
2018-12-06T08:31:43.718Z,50
2018-12-06T08:32:51.914Z,55
2018-12-06T08:34:06.039Z,50
2018-12-06T08:35:08.059Z,50
2018-12-06T08:36:16.093Z,50
2018-12-06T08:37:24.152Z,50
2018-12-06T08:38:34.016Z,50
2018-12-06T08:39:40.339Z,55
2018-12-06T08:40:48.163Z,55
2018-12-06T08:41:56.450Z,60
2018-12-06T08:43:04.515Z,60
2018-12-06T08:44:12.623Z,55
2018-12-06T08:45:20.055Z,65
2018-12-06T08:46:28.097Z,75
2018-12-06T08:47:36.178Z,70
2018-12-06T08:48:44.222Z,70
2018-12-06T08:49:52.292Z,75
2018-12-06T08:51:00.383Z,80
2018-12-06T08:52:08.431Z,85
2018-12-06T08:53:16.488Z,85
2018-12-06T08:54:24.539Z,100
2018-12-06T08:55:32.597Z,105
2018-12-06T08:56:40.660Z,100
2018-12-06T08:57:48.730Z,100
2018-12-06T08:58:56.783Z,95
2018-12-06T09:00:04.850Z,85
2018-12-06T09:01:12.926Z,100
2018-12-06T09:02:20.953Z,110
2018-12-06T09:03:29.048Z,120
2018-12-06T09:04:37.664Z,125
2018-12-06T09:05:45.166Z,115
2018-12-06T09:06:53.220Z,125
2018-12-06T09:08:01.273Z,130
2018-12-06T09:09:09.355Z,115
2018-12-06T09:10:17.409Z,115
2018-12-06T09:11:25.466Z,110
2018-12-06T09:12:33.538Z,95
2018-12-06T09:13:41.574Z,95
2018-12-06T09:14:49.659Z,90
2018-12-06T09:15:57.723Z,80
2018-12-06T09:17:05.830Z,65
2018-12-06T09:18:13.835Z,85
2018-12-06T09:19:21.904Z,130
2018-12-06T09:20:29.977Z,155
2018-12-06T09:21:38.039Z,120
2018-12-06T09:22:46.089Z,125
2018-12-06T09:23:54.143Z,135
2018-12-06T09:25:02.225Z,130
2018-12-06T09:26:10.290Z,130
2018-12-06T09:27:18.350Z,150
2018-12-06T09:28:26.417Z,140
2018-12-06T09:29:34.454Z,125
2018-12-06T09:30:42.522Z,115
2018-12-06T09:31:50.601Z,95
2018-12-06T09:32:58.657Z,105
2018-12-06T09:34:06.719Z,125
2018-12-06T09:35:14.783Z,165
2018-12-06T09:36:22.847Z,140
2018-12-06T09:37:30.886Z,150
2018-12-06T09:38:38.976Z,155
2018-12-06T09:39:47.036Z,160
2018-12-06T09:40:55.092Z,140
2018-12-06T09:42:03.156Z,135
2018-12-06T09:43:11.202Z,130
2018-12-06T09:44:19.286Z,90
2018-12-06T09:45:27.348Z,80
2018-12-06T09:46:35.411Z,70
2018-12-06T09:47:43.464Z,85
2018-12-06T09:48:51.511Z,70
2018-12-06T09:49:59.600Z,65
2018-12-06T09:51:07.649Z,65
2018-12-06T09:52:15.711Z,70
2018-12-06T09:53:23.786Z,70
2018-12-06T09:54:31.841Z,65
2018-12-06T09:55:39.909Z,60
2018-12-06T09:56:47.981Z,65
2018-12-06T09:57:56.053Z,110
2018-12-06T09:59:04.106Z,120
2018-12-06T10:00:12.152Z,115
2018-12-06T10:01:20.221Z,95
2018-12-06T10:02:28.301Z,110
2018-12-06T10:03:36.351Z,135
2018-12-06T10:04:44.419Z,150
2018-12-06T10:05:52.467Z,140
2018-12-06T10:07:00.520Z,125
2018-12-06T10:08:08.616Z,135
2018-12-06T10:09:16.655Z,125
2018-12-06T10:10:24.719Z,130
2018-12-06T10:11:32.795Z,130
2018-12-06T10:12:40.842Z,135
2018-12-06T10:13:48.908Z,135
2018-12-06T10:14:56.962Z,150
2018-12-06T10:16:05.036Z,165
2018-12-06T10:17:13.116Z,165
2018-12-06T10:18:21.124Z,175
2018-12-06T10:19:29.227Z,165
2018-12-06T10:20:37.293Z,145
2018-12-06T10:21:45.346Z,125
2018-12-06T10:22:53.420Z,130
2018-12-06T10:24:01.451Z,125
2018-12-06T10:25:09.548Z,130
2018-12-06T10:26:17.612Z,125
2018-12-06T10:27:25.665Z,115
2018-12-06T10:28:33.732Z,120
2018-12-06T10:29:41.795Z,120
2018-12-06T10:30:49.856Z,125
2018-12-06T10:31:57.915Z,145
2018-12-06T10:33:05.965Z,180
2018-12-06T10:34:14.040Z,190
2018-12-06T10:35:22.109Z,200
2018-12-06T10:36:30.174Z,180
2018-12-06T10:37:38.218Z,160
2018-12-06T10:38:46.298Z,175
2018-12-06T10:39:54.381Z,160
2018-12-06T10:41:02.424Z,180
2018-12-06T10:42:10.469Z,200
2018-12-06T10:43:18.609Z,200
2018-12-06T10:44:26.601Z,170
2018-12-06T10:45:34.659Z,180
2018-12-06T10:46:42.744Z,175
2018-12-06T10:47:50.778Z,140
2018-12-06T10:48:58.870Z,115
2018-12-06T10:50:06.923Z,115
2018-12-06T10:51:14.990Z,150
2018-12-06T10:52:23.054Z,115
2018-12-06T10:53:31.099Z,115
2018-12-06T10:54:39.184Z,110
2018-12-06T10:55:47.250Z,110
2018-12-06T10:56:55.312Z,110
2018-12-06T10:58:03.361Z,145
2018-12-06T10:59:11.402Z,155
2018-12-06T11:00:19.486Z,155
2018-12-06T11:01:27.554Z,165
2018-12-06T11:02:35.616Z,180
2018-12-06T11:03:43.688Z,190
2018-12-06T11:04:51.724Z,205
2018-12-06T11:05:59.824Z,195
2018-12-06T11:07:07.878Z,180
2018-12-06T11:08:15.944Z,190
2018-12-06T11:09:23.997Z,175
2018-12-06T11:10:32.074Z,180
2018-12-06T11:11:40.164Z,170
2018-12-06T11:12:48.202Z,200
2018-12-06T11:13:56.263Z,150
2018-12-06T11:15:04.320Z,140
2018-12-06T11:16:12.392Z,140
2018-12-06T11:17:20.466Z,145
2018-12-06T11:18:28.513Z,115
2018-12-06T11:19:36.591Z,115
2018-12-06T11:20:44.648Z,110
2018-12-06T11:21:52.699Z,130
2018-12-06T11:23:00.748Z,160
2018-12-06T11:24:08.850Z,180
2018-12-06T11:25:16.895Z,210
2018-12-06T11:26:24.967Z,145
2018-12-06T11:27:33.049Z,175
2018-12-06T11:28:41.065Z,150
2018-12-06T11:29:49.169Z,125
2018-12-06T11:30:57.212Z,130
2018-12-06T11:32:05.287Z,115
2018-12-06T11:33:13.354Z,110
2018-12-06T11:34:21.388Z,115
2018-12-06T11:35:29.457Z,125
2018-12-06T11:36:37.527Z,115
2018-12-06T11:37:45.604Z,110
2018-12-06T11:38:53.673Z,105
2018-12-06T11:40:01.714Z,105
2018-12-06T11:41:09.795Z,100
2018-12-06T11:42:18.985Z,95
2018-12-06T11:43:25.922Z,100
2018-12-06T11:44:33.971Z,100
2018-12-06T11:45:42.047Z,75
2018-12-06T11:46:50.124Z,70
2018-12-06T11:47:58.167Z,70
2018-12-06T11:49:06.242Z,95
2018-12-06T11:50:14.304Z,100
2018-12-06T11:51:22.357Z,75
2018-12-06T11:52:30.425Z,75
2018-12-06T11:53:38.489Z,75
2018-12-06T11:54:46.548Z,80
2018-12-06T11:55:54.621Z,95
2018-12-06T11:57:02.683Z,115
2018-12-06T11:58:11.511Z,110
2018-12-06T11:59:18.806Z,110
2018-12-06T12:00:26.874Z,95
2018-12-06T12:01:34.935Z,100
2018-12-06T12:02:43.028Z,95
2018-12-06T12:03:51.042Z,85
2018-12-06T12:04:59.117Z,80
2018-12-06T12:06:07.194Z,85
2018-12-06T12:07:15.250Z,80
2018-12-06T12:08:23.312Z,90
2018-12-06T12:09:31.362Z,80
2018-12-06T12:10:39.432Z,75
2018-12-06T12:11:47.509Z,90
2018-12-06T12:12:55.567Z,80
2018-12-06T12:14:03.639Z,80
2018-12-06T12:15:11.682Z,80
2018-12-06T12:16:19.758Z,85
2018-12-06T12:17:27.818Z,75
2018-12-06T12:18:35.914Z,80
2018-12-06T12:19:43.951Z,80
2018-12-06T12:20:52.009Z,75
2018-12-06T12:22:00.088Z,70
2018-12-06T12:23:08.144Z,70
2018-12-06T12:24:16.203Z,80
2018-12-06T12:25:24.283Z,95
2018-12-06T12:26:32.356Z,110
2018-12-06T12:27:40.405Z,115
2018-12-06T12:28:48.464Z,130
2018-12-06T12:29:56.525Z,100
2018-12-06T12:31:04.574Z,110
2018-12-06T12:32:12.647Z,125
2018-12-06T12:33:20.690Z,135
2018-12-06T12:34:28.761Z,130
2018-12-06T12:35:36.820Z,105
2018-12-06T12:36:44.895Z,115
2018-12-06T12:37:52.953Z,110
2018-12-06T12:39:00.989Z,110
2018-12-06T12:40:09.080Z,105
2018-12-06T12:41:17.146Z,105
2018-12-06T12:42:25.209Z,95
2018-12-06T12:43:33.263Z,95
2018-12-06T12:44:41.303Z,95
2018-12-06T12:45:49.413Z,115
2018-12-06T12:46:57.443Z,95
2018-12-06T12:48:05.509Z,90
2018-12-06T12:49:13.577Z,95
2018-12-06T12:50:21.627Z,80
2018-12-06T12:51:29.715Z,85
2018-12-06T12:52:37.774Z,80
2018-12-06T12:53:45.873Z,75
2018-12-06T12:54:53.901Z,75
2018-12-06T12:56:01.955Z,70
2018-12-06T12:57:10.027Z,80
2018-12-06T12:58:18.098Z,80
2018-12-06T12:59:26.160Z,60
2018-12-06T13:00:34.227Z,55
2018-12-06T13:01:42.278Z,50
2018-12-06T13:02:50.345Z,50
2018-12-06T13:03:58.414Z,55
2018-12-06T13:05:06.483Z,45
2018-12-06T13:06:14.533Z,50
2018-12-06T13:07:22.603Z,50
2018-12-06T13:08:30.660Z,50
2018-12-06T13:09:38.714Z,45
2018-12-06T13:10:46.793Z,50
2018-12-06T13:11:54.861Z,55
2018-12-06T13:13:02.925Z,55
2018-12-06T13:14:10.958Z,60
2018-12-06T13:15:19.029Z,65
2018-12-06T13:16:27.115Z,60
2018-12-06T13:17:35.174Z,55
2018-12-06T13:18:43.232Z,50
2018-12-06T13:19:51.274Z,45
2018-12-06T13:20:59.355Z,50
2018-12-06T13:22:07.425Z,50
2018-12-06T13:23:15.487Z,55
2018-12-06T13:24:23.539Z,50
2018-12-06T13:25:31.588Z,55
2018-12-06T13:26:39.675Z,50
2018-12-06T13:27:47.725Z,55
2018-12-06T13:28:55.804Z,60
2018-12-06T13:30:03.864Z,60
2018-12-06T13:31:12.027Z,55
2018-12-06T13:32:19.987Z,50
2018-12-06T13:33:28.054Z,55
2018-12-06T13:34:36.106Z,55
2018-12-06T13:35:44.195Z,60
2018-12-06T13:36:52.244Z,55
2018-12-06T13:38:00.312Z,70
2018-12-06T13:39:08.368Z,80
2018-12-06T13:40:16.471Z,65
2018-12-06T13:41:24.507Z,70
2018-12-06T13:42:32.557Z,60
2018-12-06T13:43:40.611Z,50
2018-12-06T13:44:48.692Z,50
2018-12-06T13:45:56.762Z,50
2018-12-06T13:47:04.800Z,50
2018-12-06T13:48:12.879Z,55
2018-12-06T13:49:20.907Z,50
2018-12-06T13:50:28.999Z,60
2018-12-06T13:51:37.067Z,70
2018-12-06T13:52:45.130Z,60
2018-12-06T13:53:53.194Z,65
2018-12-06T13:55:01.220Z,65
2018-12-06T13:56:09.318Z,55
2018-12-06T13:57:19.719Z,60
2018-12-06T13:58:25.453Z,50
2018-12-06T13:59:33.507Z,55
2018-12-06T14:00:41.703Z,55
2018-12-06T14:01:49.627Z,60
2018-12-06T14:02:57.710Z,45
2018-12-06T14:04:05.745Z,50
2018-12-06T14:05:13.811Z,40
2018-12-06T14:06:21.877Z,50
2018-12-06T14:07:29.946Z,60
2018-12-06T14:08:38.322Z,55
2018-12-06T14:09:46.074Z,55
2018-12-06T14:10:54.129Z,60
2018-12-06T14:12:02.203Z,55
2018-12-06T14:13:10.250Z,80
2018-12-06T14:14:18.330Z,60
2018-12-06T14:15:26.387Z,60
2018-12-06T14:16:34.473Z,60
2018-12-06T14:17:42.512Z,45
2018-12-06T14:18:50.575Z,45
2018-12-06T14:19:58.631Z,35
2018-12-06T14:21:06.701Z,30
2018-12-06T14:22:14.758Z,35
2018-12-06T14:23:22.816Z,30
2018-12-06T14:24:30.877Z,30
2018-12-06T14:25:38.958Z,30
2018-12-06T14:26:47.018Z,35
2018-12-06T14:27:55.090Z,40
2018-12-06T14:29:03.134Z,35
2018-12-06T14:30:11.192Z,35
2018-12-06T14:31:19.270Z,35
2018-12-06T14:32:27.349Z,35
2018-12-06T14:33:35.395Z,40
2018-12-06T14:34:43.459Z,50
2018-12-06T14:35:51.503Z,40
2018-12-06T14:37:02.020Z,35
2018-12-06T14:38:07.656Z,30
2018-12-06T14:39:15.710Z,25
2018-12-06T14:40:23.771Z,25
2018-12-06T14:41:31.835Z,25
2018-12-06T14:42:39.916Z,25
2018-12-06T14:43:47.983Z,25
2018-12-06T14:44:56.021Z,35
2018-12-06T14:46:04.090Z,35
2018-12-06T14:47:12.151Z,30
2018-12-06T14:48:20.226Z,25
2018-12-06T14:49:28.285Z,30
2018-12-06T14:50:36.354Z,25
2018-12-06T14:51:44.404Z,30
2018-12-06T14:52:52.475Z,25
2018-12-06T14:54:00.542Z,30
2018-12-06T14:55:08.591Z,30
2018-12-06T14:56:16.655Z,15
2018-12-06T14:57:24.732Z,20
2018-12-06T14:58:32.797Z,15
2018-12-06T14:59:40.828Z,15
2018-12-06T15:00:48.908Z,15
2018-12-06T15:01:56.993Z,15
2018-12-06T15:03:05.054Z,20
2018-12-06T15:04:13.130Z,20
2018-12-06T15:05:21.148Z,15
2018-12-06T15:06:29.242Z,20
2018-12-06T15:07:37.300Z,20
2018-12-06T15:08:45.344Z,15
2018-12-06T15:09:53.402Z,15
2018-12-06T15:11:01.455Z,10
2018-12-06T15:12:09.539Z,10
2018-12-06T15:13:17.609Z,5
2018-12-06T15:14:25.662Z,10
2018-12-06T15:15:33.738Z,10
2018-12-06T15:16:41.787Z,10
2018-12-06T15:17:49.854Z,10
2018-12-06T15:18:57.914Z,10
2018-12-06T15:20:05.983Z,10
2018-12-06T15:21:14.057Z,5
2018-12-06T15:22:22.123Z,10
2018-12-06T15:23:30.173Z,5
2018-12-06T15:24:38.241Z,5
2018-12-06T15:25:46.301Z,5
2018-12-06T15:26:54.370Z,5
2018-12-06T15:28:02.422Z,5
2018-12-06T15:29:10.482Z,5
2018-12-06T15:30:18.541Z,5
2018-12-06T15:31:26.598Z,5
2018-12-06T15:32:34.659Z,5
2018-12-06T15:33:42.743Z,0
2018-12-06T15:34:50.781Z,0
2018-12-06T15:35:58.858Z,0
2018-12-06T15:37:06.936Z,0
2018-12-06T15:38:14.993Z,0
2018-12-06T15:39:23.054Z,0
2018-12-06T15:40:31.087Z,0
2018-12-06T15:41:39.176Z,0
2018-12-06T15:42:47.243Z,0
2018-12-06T15:43:55.299Z,0
2018-12-06T15:45:03.340Z,0
2018-12-06T15:46:11.399Z,0
2018-12-06T15:47:19.487Z,0
2018-12-06T15:48:27.537Z,0
2018-12-06T15:49:35.609Z,0
2018-12-06T15:50:43.665Z,0
2018-12-06T15:51:51.730Z,0
2018-12-06T15:52:59.791Z,0
2018-12-06T15:54:07.859Z,0
2018-12-06T15:55:16.619Z,0
2018-12-06T15:56:23.991Z,0
2018-12-06T15:57:32.043Z,0
2018-12-06T15:58:40.120Z,0
2018-12-06T15:59:48.177Z,0
2018-12-06T16:00:56.269Z,0
2018-12-06T16:02:04.306Z,0
2018-12-06T16:03:12.362Z,0
2018-12-06T16:04:20.422Z,0
2018-12-06T16:05:28.496Z,0
2018-12-06T16:06:36.545Z,0
2018-12-06T16:07:44.613Z,0
2018-12-06T16:08:52.667Z,0
2018-12-06T16:10:00.727Z,0
2018-12-06T16:11:08.796Z,0
2018-12-06T16:12:16.856Z,0
2018-12-06T16:13:24.937Z,0
2018-12-06T16:14:33.002Z,0
2018-12-06T16:15:41.015Z,0
2018-12-06T16:16:49.115Z,0
2018-12-06T16:17:57.160Z,0
2018-12-06T16:19:05.242Z,0
2018-12-06T16:20:13.301Z,0
2018-12-06T16:21:21.342Z,0
2018-12-06T16:22:29.441Z,0